NCAR-RAP Real-Time Weather Data

Output produced by METARs form (14 October 2019  22:45 UTC)
found at http://weather.rap.ucar.edu/surface/
 
KROA 142154Z 28006KT 10SM CLR 23/01 A3005 RMK SLP170 T02330011
KROA 142054Z 29005KT 10SM CLR 24/02 A3005 RMK SLP170 T02390017 56010
KROA 141954Z VRB04KT 10SM CLR 24/02 A3006 RMK SLP172 T02390022
KROA 141854Z VRB03G15KT 10SM CLR 23/03 A3006 RMK SLP172 T02280033
KROA 141754Z VRB03KT 10SM CLR 22/03 A3009 RMK SLP180 T02220033 10228 20111 58020
KROA 141654Z 30008KT 10SM CLR 21/02 A3011 RMK SLP190 T02110022
KROA 141554Z 30007KT 260V340 10SM CLR 20/03 A3012 RMK SLP194 T02000028
KROA 141454Z 25008KT 10SM CLR 18/04 A3014 RMK SLP201 T01830044 51018
KROA 141354Z 26007KT 10SM CLR 16/04 A3013 RMK SLP199 T0160044
KROA 141254Z 28005KT 10SM CLR 14/06 A3011 RMK SLP193 T01390056
KROA 141154Z 30008KT 10SM CLR 12/06 A3009 RMK SLP186 T01170056 10133 20089 53019
KROA 141114Z 34006KT 10SM CLR 09/08 A3007 RMK T00940078
KROA 141054Z 36004KT 2SM CLR 09/08 A3007 RMK VSBY N-E 1
KROA 140954Z 320004KT 10SM CLR 11/08 A3005
KROA 140754Z 00000KT 10SM CLR 13/11 A3002 RMK AO2 SLP162 T01280106
KROA 140654Z 00000KT 10SM CLR 13/12 A3004 RMK AO2 SLP168 T01280117
KROA 140601Z 33003KT 10SM OVC012 13/11 A3004 RMK AO2 T01330111
KROA 140554Z 00000KT 10SM OVC016 13/11 A3004 RMK AO2 SLP168 T01330111 10144 20128 50000
KROA 140454Z 00000KT 10SM OVC016 13/11 A3004 RMK AO2 SLP168 T01280111 401830106
KROA 140442Z 00000KT 10SM BKN016 13/11 A3004 RMK AO2 T01280111
KROA 140426Z 00000KT 10SM SCT016 13/11 A3005 RMK AO2 T01280106
KROA 140402Z 00000KT 10SM OVC014 14/11 A3005 RMK AO2 T01390111
KROA 140354Z 00000KT 10SM OVC015 13/11 A3005 RMK AO2 SLP169 T01330111
KROA 140254Z 00000KT 10SM BKN016 13/11 A3004 RMK AO2 SLP169 T01330106 50002
KROA 140249Z 00000KT 10SM BKN017 13/11 A3004 RMK AO2
KROA 140154Z 00000KT 10SM FEW023 13/11 A3004 RMK AO2 SLP170 T01330106
KROA 140054Z 12004KT 10SM CLR 14/11 A3004 RMK AO2 SLP167 T01390106
KROA 132354Z 14005KT 10SM CLR 14/11 A3003 RMK AO2 SLP166 T01440106 10183 20144 55000
KROA 132254Z 13006KT 10SM FEW041 SCT110 15/11 A3002 RMK AO2 SLP163 T01500106
KROA 132154Z 14005KT 10SM FEW041 BKN110 17/11 A3003 RMK AO2 SLP165 T01670106
KROA 132054Z 15008KT 10SM SCT041 BKN110 17/11 A3003 RMK AO2 SLP165 T01720111 55011
KROA 131954Z 12008KT 10SM SCT035 18/11 A3003 RMK AO2 SLP162 T01780106
KROA 131854Z 00000KT 10SM BKN034 BKN045 BKN080 18/11 A3004 RMK AO2 SLP167 T01780106
KROA 131754Z 13008KT 10SM OVC031 17/10 A3007 RMK AO2 SLP175 T01720100 10178 20128 58016
KROA 131654Z 15006KT 10SM OVC037 17/10 A3009 RMK AO2 SLP183 T01720100
KROA 131611Z 19005KT 10SM SCT025 OVC039 17/08 A3010 RMK AO2 T01670083
KROA 131554Z 17006KT 10SM BKN025 OVC037 16/08 A3011 RMK AO2 SLP190 T01610083
KROA 131454Z 00000KT 10SM OVC025 16/08 A3012 RMK AO2 SLP193 T01560083 50001
KROA 131354Z 00000KT 10SM OVC024 14/08 A3012 RMK AO2 SLP195 T01440083
KROA 131327Z 00000KT 10SM BKN024 OVC038 14/08 A3012 RMK AO2 T01440083
KROA 131254Z 00000KT 10SM BKN041 BKN055 OVC070 14/08 A3013 RMK AO2 SLP197 T01440078
KROA 131154Z 00000KT 10SM FEW045 BKN070 13/07 A3011 RMK AO2 SLP193 T01280067 10150 20106 52009
KROA 131054Z 30004KT 10SM BKN085 11/07 A3011 RMK AO2 SLP191 T01110072
KROA 130954Z 02004KT 10SM SCT090 13/07 A3009 RMK AO2 SLP182 T01280067
KROA 130854Z 02006KT 10SM BKN038 BKN048 OVC055 14/06 A3008 RMK AO2 SLP180 T01390061 56001
KROA 130754Z 34004KT 10SM BKN049 BKN095 14/07 A3009 RMK AO2 SLP181 T01390067
KROA 130654Z 02005KT 10SM BKN050 BKN065 BKN085 14/08 A3008 RMK AO2 SLP178 T01390078
KROA 130554Z 36004KT 10SM FEW044 OVC055 14/07 A3009 RMK AO2 SLP179 T01440072 10161 20139 55003
KROA 130454Z 34005KT 10SM BKN060 14/09 A3008 RMK AO2 SLP177 T01440089 402500133
KROA 130354Z 34006KT 10SM SCT049 BKN060 BKN075 15/09 A3009 RMK AO2 SLP182 T01500094
KROA 130254Z 35006KT 10SM BKN050 OVC065 16/10 A3010 RMK AO2 SLP185 T01560100 50007
KROA 130154Z 30006KT 10SM BKN060 OVC085 15/11 A3011 RMK AO2 SLP189 T01500106
KROA 130054Z 35008KT 10SM CLR 16/10 A3009 RMK AO2 SLP186 T01610100
KROA 122354Z 33011KT 10SM CLR 16/10 A3007 RMK AO2 SLP179 T01610100 10250 20161 53012
KROA 122254Z 34007KT 10SM FEW065 SCT085 18/11 A3006 RMK AO2 SLP172 T01780111